createdAt,value
2023-01-07T00:01:37.446Z,99050.59
2023-01-07T00:04:06.977Z,99045.69
2023-01-07T00:06:36.390Z,99042.88
2023-01-07T00:09:04.277Z,99038.88
2023-01-07T00:11:35.937Z,99034.75
2023-01-07T00:14:05.291Z,99031.00
2023-01-07T00:16:33.501Z,99032.56
2023-01-07T00:19:01.618Z,99036.38
2023-01-07T00:21:29.241Z,99033.06
2023-01-07T00:23:58.528Z,99032.19
2023-01-07T00:26:27.239Z,99030.41
2023-01-07T00:28:54.103Z,99028.16
2023-01-07T00:31:29.112Z,99026.69
2023-01-07T00:33:59.040Z,99027.72
2023-01-07T00:36:28.891Z,99018.69
2023-01-07T00:39:03.590Z,99018.59
2023-01-07T00:41:30.211Z,99010.53
2023-01-07T00:43:57.402Z,99005.63
2023-01-07T00:46:24.319Z,99000.72
2023-01-07T00:48:51.246Z,98998.19
2023-01-07T00:51:18.779Z,98992.09
2023-01-07T00:53:46.031Z,99003.19
2023-01-07T00:56:14.682Z,98995.78
2023-01-07T00:58:41.737Z,98998.34
2023-01-07T01:01:10.545Z,99001.22
2023-01-07T01:03:38.386Z,98988.19
2023-01-07T01:06:12.963Z,99001.47
2023-01-07T01:08:42.529Z,98990.22
2023-01-07T01:11:10.930Z,98996.75
2023-01-07T01:13:37.993Z,98995.63
2023-01-07T01:16:09.434Z,98993.16
2023-01-07T01:18:36.560Z,98984.47
2023-01-07T01:21:07.457Z,98984.84
2023-01-07T01:23:34.864Z,98983.31
2023-01-07T01:26:10.582Z,98983.31
2023-01-07T01:28:37.555Z,98979.13
2023-01-07T01:31:04.298Z,98978.09
2023-01-07T01:33:31.127Z,98980.56
2023-01-07T01:35:57.625Z,98977.69
2023-01-07T01:38:24.132Z,98977.56
2023-01-07T01:40:50.645Z,98979.00
2023-01-07T01:43:32.201Z,98975.09
2023-01-07T01:46:03.600Z,98971.69
2023-01-07T01:48:33.115Z,98969.66
2023-01-07T01:51:00.479Z,98973.56
2023-01-07T01:53:30.393Z,98965.41
2023-01-07T01:56:11.097Z,98963.78
2023-01-07T01:58:43.647Z,98964.81
2023-01-07T02:01:10.247Z,98954.03
2023-01-07T02:03:37.959Z,98957.00
2023-01-07T02:06:05.168Z,98955.88
2023-01-07T02:08:31.864Z,98966.03
2023-01-07T02:11:22.904Z,98955.69
2023-01-07T02:14:04.663Z,98960.66
2023-01-07T02:16:48.680Z,98945.84
2023-01-07T02:19:35.470Z,98946.50
2023-01-07T02:22:46.548Z,98946.63
2023-01-07T02:25:25.119Z,98932.84
2023-01-07T02:28:16.403Z,98934.66
2023-01-07T02:30:54.898Z,98942.69
2023-01-07T02:33:34.154Z,98920.47
2023-01-07T02:36:08.107Z,98924.63
2023-01-07T02:38:55.275Z,98921.69
2023-01-07T02:41:43.448Z,98919.28
2023-01-07T02:44:20.469Z,98924.94
2023-01-07T02:46:56.681Z,98924.19
2023-01-07T02:49:23.232Z,98910.63
2023-01-07T02:51:50.212Z,98907.47
2023-01-07T02:54:23.971Z,98902.72
2023-01-07T02:57:09.627Z,98902.91
2023-01-07T03:00:00.518Z,98894.72
2023-01-07T03:02:56.318Z,98887.53
2023-01-07T03:05:47.489Z,98890.75
2023-01-07T03:09:09.630Z,98894.34
2023-01-07T03:11:47.411Z,98890.03
2023-01-07T03:14:26.244Z,98886.47
2023-01-07T03:16:57.525Z,98893.97
2023-01-07T03:19:47.655Z,98880.78
2023-01-07T03:22:17.647Z,98877.47
2023-01-07T03:24:46.753Z,98868.91
2023-01-07T03:27:14.907Z,98871.00
2023-01-07T03:29:42.018Z,98864.78
2023-01-07T03:32:23.490Z,98873.06
2023-01-07T03:34:50.059Z,98870.69
2023-01-07T03:37:20.141Z,98867.81
2023-01-07T03:39:48.191Z,98868.69
2023-01-07T03:42:39.257Z,98859.84
2023-01-07T03:45:18.369Z,98856.75
2023-01-07T03:47:50.108Z,98853.06
2023-01-07T03:50:17.932Z,98846.19
2023-01-07T03:52:45.050Z,98851.34
2023-01-07T03:55:11.846Z,98853.41
2023-01-07T03:57:38.414Z,98847.22
2023-01-07T04:00:06.954Z,98843.56
2023-01-07T04:02:33.522Z,98846.91
2023-01-07T04:05:00.040Z,98837.88
2023-01-07T04:07:26.631Z,98847.34
2023-01-07T04:09:53.082Z,98844.34
2023-01-07T04:12:19.587Z,98837.28
2023-01-07T04:14:46.136Z,98825.53
2023-01-07T04:17:12.624Z,98820.44
2023-01-07T04:19:39.739Z,98828.47
2023-01-07T04:22:10.167Z,98827.25
2023-01-07T04:24:36.717Z,98829.28
2023-01-07T04:27:03.593Z,98826.47
2023-01-07T04:29:30.578Z,98830.78
2023-01-07T04:31:57.797Z,98820.50
2023-01-07T04:34:24.490Z,98825.97
2023-01-07T04:36:51.478Z,98822.22
2023-01-07T04:39:18.319Z,98822.47
2023-01-07T04:41:45.153Z,98819.06
2023-01-07T04:44:11.794Z,98817.59
2023-01-07T04:46:38.265Z,98814.06
2023-01-07T04:49:04.756Z,98820.59
2023-01-07T04:51:31.269Z,98815.09
2023-01-07T04:53:58.387Z,98804.13
2023-01-07T04:56:24.930Z,98814.81
2023-01-07T04:58:51.675Z,98818.97
2023-01-07T05:01:18.286Z,98814.81
2023-01-07T05:03:44.800Z,98813.56
2023-01-07T05:06:11.253Z,98811.56
2023-01-07T05:08:37.719Z,98817.34
2023-01-07T05:11:05.204Z,98816.38
2023-01-07T05:13:32.455Z,98822.44
2023-01-07T05:15:59.063Z,98816.66
2023-01-07T05:18:25.552Z,98812.13
2023-01-07T05:20:52.006Z,98813.16
2023-01-07T05:23:18.494Z,98819.16
2023-01-07T05:25:45.141Z,98812.44
2023-01-07T05:28:12.243Z,98805.53
2023-01-07T05:30:39.465Z,98811.91
2023-01-07T05:33:07.316Z,98807.09
2023-01-07T05:35:34.901Z,98815.94
2023-01-07T05:38:01.485Z,98809.41
2023-01-07T05:40:28.077Z,98805.28
2023-01-07T05:42:54.661Z,98800.69
2023-01-07T05:45:24.323Z,98801.53
2023-01-07T05:47:50.785Z,98791.47
2023-01-07T05:50:17.435Z,98797.53
2023-01-07T05:52:43.923Z,98811.91
2023-01-07T05:55:10.439Z,98797.75
2023-01-07T05:57:36.947Z,98798.19
2023-01-07T06:00:04.860Z,98792.19
2023-01-07T06:02:31.378Z,98786.00
2023-01-07T06:04:57.907Z,98790.34
2023-01-07T06:07:24.456Z,98787.66
2023-01-07T06:09:50.923Z,98792.22
2023-01-07T06:12:17.433Z,98797.97
2023-01-07T06:14:43.901Z,98794.22
2023-01-07T06:17:10.387Z,98794.59
2023-01-07T06:19:37.014Z,98793.03
2023-01-07T06:22:03.643Z,98794.66
2023-01-07T06:24:30.155Z,98790.16
2023-01-07T06:26:56.687Z,98800.06
2023-01-07T06:29:23.159Z,98793.41
2023-01-07T06:31:49.680Z,98788.03
2023-01-07T06:34:16.174Z,98783.88
2023-01-07T06:36:42.755Z,98774.88
2023-01-07T06:39:09.207Z,98779.03
2023-01-07T06:41:35.707Z,98785.69
2023-01-07T06:44:02.224Z,98782.34
2023-01-07T06:46:28.890Z,98775.75
2023-01-07T06:48:55.602Z,98777.03
2023-01-07T06:51:22.060Z,98772.56
2023-01-07T06:53:48.502Z,98772.06
2023-01-07T06:56:15.003Z,98766.97
2023-01-07T06:58:41.463Z,98767.59
2023-01-07T07:01:08.989Z,98767.00
2023-01-07T07:03:35.577Z,98763.28
2023-01-07T07:06:02.155Z,98757.72
2023-01-07T07:08:28.626Z,98763.50
2023-01-07T07:10:55.143Z,98758.50
2023-01-07T07:13:21.767Z,98751.47
2023-01-07T07:15:49.778Z,98762.63
2023-01-07T07:18:18.039Z,98762.25
2023-01-07T07:20:46.584Z,98759.00
2023-01-07T07:23:13.387Z,98756.50
2023-01-07T07:25:40.018Z,98743.56
2023-01-07T07:28:06.543Z,98748.41
2023-01-07T07:30:45.615Z,98737.72
2023-01-07T07:33:15.069Z,98743.63
2023-01-07T07:35:42.045Z,98740.16
2023-01-07T07:38:08.611Z,98734.06
2023-01-07T07:40:35.203Z,98720.75
2023-01-07T07:43:11.789Z,98723.28
2023-01-07T07:45:40.452Z,98724.34
2023-01-07T07:48:08.021Z,98722.31
2023-01-07T07:50:35.229Z,98717.78
2023-01-07T07:53:01.969Z,98716.16
2023-01-07T07:55:28.582Z,98713.06
2023-01-07T07:57:55.888Z,98715.53
2023-01-07T08:00:23.194Z,98709.53
2023-01-07T08:02:49.724Z,98698.50
2023-01-07T08:05:16.464Z,98716.16
2023-01-07T08:07:43.006Z,98720.22
2023-01-07T08:10:09.696Z,98709.97
2023-01-07T08:12:38.231Z,98698.94
2023-01-07T08:15:06.214Z,98701.31
2023-01-07T08:17:32.680Z,98693.94
2023-01-07T08:19:59.216Z,98694.69
2023-01-07T08:22:25.678Z,98693.63
2023-01-07T08:24:52.189Z,98695.19
2023-01-07T08:27:18.664Z,98692.97
2023-01-07T08:29:45.227Z,98690.47
2023-01-07T08:32:11.719Z,98691.53
2023-01-07T08:34:38.233Z,98688.00
2023-01-07T08:37:04.789Z,98674.00
2023-01-07T08:39:31.339Z,98680.88
2023-01-07T08:41:57.879Z,98684.63
2023-01-07T08:44:24.375Z,98678.78
2023-01-07T08:46:52.753Z,98681.41
2023-01-07T08:49:19.232Z,98670.91
2023-01-07T08:51:45.742Z,98662.22
2023-01-07T08:54:12.270Z,98676.22
2023-01-07T08:56:38.707Z,98670.72
2023-01-07T08:59:05.225Z,98667.84
2023-01-07T09:01:31.781Z,98680.38
2023-01-07T09:03:58.362Z,98672.75
2023-01-07T09:06:24.899Z,98672.59
2023-01-07T09:08:51.501Z,98666.78
2023-01-07T09:11:18.074Z,98659.78
2023-01-07T09:13:44.600Z,98664.03
2023-01-07T09:16:11.281Z,98655.16
2023-01-07T09:18:37.825Z,98654.59
2023-01-07T09:21:04.373Z,98652.94
2023-01-07T09:23:30.881Z,98652.22
2023-01-07T09:25:57.430Z,98648.38
2023-01-07T09:28:23.932Z,98643.38
2023-01-07T09:30:50.471Z,98647.69
2023-01-07T09:33:16.988Z,98643.41
2023-01-07T09:35:43.544Z,98641.81
2023-01-07T09:38:10.111Z,98642.09
2023-01-07T09:40:39.761Z,98645.09
2023-01-07T09:43:27.201Z,98629.97
2023-01-07T09:46:14.635Z,98638.59
2023-01-07T09:48:47.415Z,98633.72
2023-01-07T09:51:23.778Z,98618.56
2023-01-07T09:53:53.266Z,98619.88
2023-01-07T09:56:33.378Z,98616.69
2023-01-07T09:59:01.832Z,98627.22
2023-01-07T10:01:46.627Z,98616.38
2023-01-07T10:04:25.125Z,98618.91
2023-01-07T10:07:11.381Z,98601.56
2023-01-07T10:09:55.269Z,98606.06
2023-01-07T10:12:36.822Z,98600.97
2023-01-07T10:15:22.053Z,98584.44
2023-01-07T10:18:14.965Z,98594.00
2023-01-07T10:20:53.499Z,98595.25
2023-01-07T10:23:24.165Z,98589.78
2023-01-07T10:25:53.891Z,98587.06
2023-01-07T10:28:30.169Z,98578.88
2023-01-07T10:30:59.022Z,98585.25
2023-01-07T10:33:29.756Z,98570.38
2023-01-07T10:36:08.539Z,98565.56
2023-01-07T10:38:40.953Z,98568.31
2023-01-07T10:41:22.667Z,98559.34
2023-01-07T10:44:18.345Z,98555.53
2023-01-07T10:47:06.184Z,98547.53
2023-01-07T10:49:53.777Z,98544.28
2023-01-07T10:52:45.852Z,98529.09
2023-01-07T10:55:27.927Z,98516.97
2023-01-07T10:57:54.497Z,98530.44
2023-01-07T11:00:21.282Z,98513.22
2023-01-07T11:02:56.903Z,98517.03
2023-01-07T11:05:28.807Z,98510.38
2023-01-07T11:08:04.491Z,98506.25
2023-01-07T11:10:36.461Z,98499.06
2023-01-07T11:13:16.329Z,98489.91
2023-01-07T11:15:52.591Z,98488.94
2023-01-07T11:18:33.255Z,98481.97
2023-01-07T11:21:00.613Z,98480.34
2023-01-07T11:23:43.750Z,98477.13
2023-01-07T11:26:13.463Z,98475.31
2023-01-07T11:28:48.455Z,98472.41
2023-01-07T11:31:14.963Z,98477.16
2023-01-07T11:34:01.474Z,98462.53
2023-01-07T11:36:41.784Z,98469.22
2023-01-07T11:39:22.021Z,98459.94
2023-01-07T11:41:58.264Z,98457.66
2023-01-07T11:44:25.767Z,98450.56
2023-01-07T11:46:53.552Z,98445.50
2023-01-07T11:49:26.685Z,98438.09
2023-01-07T11:51:53.951Z,98433.84
2023-01-07T11:54:28.652Z,98435.75
2023-01-07T11:57:22.599Z,98422.22
2023-01-07T12:00:05.960Z,98414.50
2023-01-07T12:02:32.522Z,98405.31
2023-01-07T12:05:23.195Z,98402.38
2023-01-07T12:07:51.517Z,98397.91
2023-01-07T12:10:31.187Z,98395.69
2023-01-07T12:13:00.056Z,98384.34
2023-01-07T12:15:37.411Z,98396.81
2023-01-07T12:18:21.767Z,98382.38
2023-01-07T12:21:06.843Z,98377.34
2023-01-07T12:23:44.403Z,98368.25
2023-01-07T12:26:25.878Z,98359.56
2023-01-07T12:29:11.116Z,98352.72
2023-01-07T12:31:37.594Z,98346.44
2023-01-07T12:34:10.595Z,98343.47
2023-01-07T12:37:02.193Z,98337.38
2023-01-07T12:39:38.692Z,98336.34
2023-01-07T12:42:12.316Z,98339.88
2023-01-07T12:44:46.278Z,98336.72
2023-01-07T12:47:31.180Z,98326.09
2023-01-07T12:50:21.734Z,98315.50
2023-01-07T12:52:56.308Z,98315.34
2023-01-07T12:55:29.455Z,98314.50
2023-01-07T12:58:16.710Z,98313.09
2023-01-07T13:00:57.290Z,98309.28
2023-01-07T13:03:46.544Z,98310.94
2023-01-07T13:06:42.681Z,98308.78
2023-01-07T13:09:18.306Z,98298.56
2023-01-07T13:12:47.538Z,98296.72
2023-01-07T13:15:22.875Z,98293.75
2023-01-07T13:17:51.176Z,98298.78
2023-01-07T13:20:27.876Z,98309.00
2023-01-07T13:22:56.457Z,98300.22
2023-01-07T13:25:32.853Z,98304.16
2023-01-07T13:28:21.009Z,98304.63
2023-01-07T13:31:21.627Z,98307.53
2023-01-07T13:34:32.127Z,98304.63
2023-01-07T13:37:35.671Z,98303.16
2023-01-07T13:40:32.705Z,98296.16
2023-01-07T13:43:33.950Z,98293.44
2023-01-07T13:46:10.478Z,98294.97
2023-01-07T13:48:38.499Z,98287.72
2023-01-07T13:51:07.333Z,98298.06
2023-01-07T13:53:54.073Z,98295.50
2023-01-07T13:56:20.569Z,98299.25
2023-01-07T13:58:49.738Z,98297.09
2023-01-07T14:01:18.374Z,98289.34
2023-01-07T14:03:54.080Z,98301.81
2023-01-07T14:06:23.835Z,98285.28
2023-01-07T14:08:59.827Z,98280.41
2023-01-07T14:11:44.346Z,98283.69
2023-01-07T14:14:41.259Z,98289.09
2023-01-07T14:17:38.197Z,98282.28
2023-01-07T14:20:21.002Z,98282.59
2023-01-07T14:23:00.868Z,98283.69
2023-01-07T14:25:39.398Z,98283.66
2023-01-07T14:28:41.713Z,98287.47
2023-01-07T14:31:21.836Z,98286.91
2023-01-07T14:33:53.089Z,98281.25
2023-01-07T14:36:20.202Z,98283.66
2023-01-07T14:38:56.610Z,98280.44
2023-01-07T14:41:23.154Z,98290.66
2023-01-07T14:44:01.189Z,98284.44
2023-01-07T14:46:27.736Z,98288.72
2023-01-07T14:49:03.272Z,98290.06
2023-01-07T14:51:51.027Z,98306.19
2023-01-07T14:54:32.766Z,98295.38
2023-01-07T14:57:25.987Z,98303.09
2023-01-07T15:00:07.853Z,98304.41
2023-01-07T15:03:00.327Z,98296.72
2023-01-07T15:06:01.270Z,98295.88
2023-01-07T15:08:56.167Z,98296.03
2023-01-07T15:11:44.523Z,98292.28
2023-01-07T15:14:43.329Z,98287.44
2023-01-07T15:17:12.687Z,98284.44
2023-01-07T15:19:40.121Z,98277.00
2023-01-07T15:22:24.603Z,98277.06
2023-01-07T15:25:09.419Z,98276.81
2023-01-07T15:27:51.526Z,98272.28
2023-01-07T15:30:35.368Z,98280.00
2023-01-07T15:33:01.801Z,98281.03
2023-01-07T15:35:48.736Z,98279.28
2023-01-07T15:38:30.433Z,98273.00
2023-01-07T15:40:59.343Z,98275.84
2023-01-07T15:43:28.508Z,98265.53
2023-01-07T15:46:00.963Z,98271.47
2023-01-07T15:48:27.644Z,98269.88
2023-01-07T15:50:54.178Z,98277.31
2023-01-07T15:53:26.615Z,98274.63
2023-01-07T15:56:05.978Z,98268.69
2023-01-07T15:58:40.083Z,98272.53
2023-01-07T16:01:12.749Z,98268.84
2023-01-07T16:03:39.787Z,98265.94
2023-01-07T16:06:20.415Z,98267.16
2023-01-07T16:08:46.931Z,98272.72
2023-01-07T16:11:28.135Z,98272.94
2023-01-07T16:14:04.306Z,98259.19
2023-01-07T16:16:32.368Z,98271.13
2023-01-07T16:19:03.320Z,98256.47
2023-01-07T16:21:36.234Z,98256.63
2023-01-07T16:24:03.078Z,98261.22
2023-01-07T16:26:38.671Z,98257.91
2023-01-07T16:29:19.512Z,98251.25
2023-01-07T16:31:51.658Z,98255.22
2023-01-07T16:34:42.295Z,98250.53
2023-01-07T16:37:15.839Z,98250.06
2023-01-07T16:39:44.531Z,98247.06
2023-01-07T16:42:23.042Z,98258.50
2023-01-07T16:44:52.522Z,98251.50
2023-01-07T16:47:22.309Z,98251.84
2023-01-07T16:49:50.351Z,98242.25
2023-01-07T16:52:22.208Z,98236.78
2023-01-07T16:54:52.057Z,98246.16
2023-01-07T16:57:34.718Z,98242.50
2023-01-07T17:00:05.808Z,98237.03
2023-01-07T17:02:53.784Z,98237.84
2023-01-07T17:05:24.239Z,98232.00
2023-01-07T17:08:00.398Z,98231.50
2023-01-07T17:10:32.903Z,98224.97
2023-01-07T17:13:25.311Z,98236.53
2023-01-07T17:15:52.219Z,98235.31
2023-01-07T17:18:18.648Z,98243.84
2023-01-07T17:20:48.119Z,98237.53
2023-01-07T17:23:26.714Z,98233.94
2023-01-07T17:25:56.017Z,98227.19
2023-01-07T17:28:25.479Z,98235.72
2023-01-07T17:30:52.677Z,98235.22
2023-01-07T17:33:22.059Z,98234.56
2023-01-07T17:35:48.793Z,98246.78
2023-01-07T17:38:16.843Z,98244.00
2023-01-07T17:40:45.009Z,98242.69
2023-01-07T17:43:37.549Z,98238.63
2023-01-07T17:46:06.889Z,98227.88
2023-01-07T17:48:34.846Z,98230.78
2023-01-07T17:51:04.378Z,98232.19
2023-01-07T17:53:34.079Z,98235.88
2023-01-07T17:56:01.773Z,98234.44
2023-01-07T17:58:32.389Z,98235.72
2023-01-07T18:01:01.301Z,98240.91
2023-01-07T18:03:28.256Z,98240.47
2023-01-07T18:05:54.774Z,98234.06
2023-01-07T18:08:21.250Z,98231.94
2023-01-07T18:11:07.638Z,98239.41
2023-01-07T18:13:34.176Z,98234.19
2023-01-07T18:16:01.023Z,98233.16
2023-01-07T18:18:28.818Z,98232.47
2023-01-07T18:20:56.130Z,98233.53
2023-01-07T18:23:23.646Z,98238.13
2023-01-07T18:25:50.761Z,98235.03
2023-01-07T18:28:17.802Z,98232.38
2023-01-07T18:30:44.248Z,98235.78
2023-01-07T18:33:11.727Z,98245.91
2023-01-07T18:35:41.845Z,98239.28
2023-01-07T18:38:13.048Z,98238.25
2023-01-07T18:40:40.073Z,98233.59
2023-01-07T18:43:07.026Z,98238.84
2023-01-07T18:45:33.629Z,98231.16
2023-01-07T18:48:00.141Z,98229.31
2023-01-07T18:50:26.835Z,98222.00
2023-01-07T18:52:53.342Z,98229.44
2023-01-07T18:55:21.083Z,98235.97
2023-01-07T18:57:47.693Z,98234.31
2023-01-07T19:00:15.367Z,98235.25
2023-01-07T19:02:41.866Z,98239.81
2023-01-07T19:05:08.462Z,98235.34
2023-01-07T19:07:35.304Z,98244.34
2023-01-07T19:10:02.908Z,98242.56
2023-01-07T19:12:29.594Z,98228.84
2023-01-07T19:14:56.186Z,98238.28
2023-01-07T19:17:22.711Z,98236.41
2023-01-07T19:19:49.287Z,98244.31
2023-01-07T19:22:17.225Z,98246.78
2023-01-07T19:24:44.444Z,98250.13
2023-01-07T19:27:11.233Z,98248.84
2023-01-07T19:29:38.052Z,98255.47
2023-01-07T19:32:04.997Z,98266.06
2023-01-07T19:34:31.538Z,98258.63
2023-01-07T19:36:58.016Z,98255.34
2023-01-07T19:39:24.589Z,98252.09
2023-01-07T19:41:51.181Z,98249.78
2023-01-07T19:44:17.884Z,98246.63
2023-01-07T19:46:44.398Z,98249.44
2023-01-07T19:49:13.378Z,98243.63
2023-01-07T19:51:41.393Z,98242.91
2023-01-07T19:54:11.444Z,98239.41
2023-01-07T19:56:42.311Z,98234.31
2023-01-07T19:59:10.355Z,98229.41
2023-01-07T20:01:38.884Z,98228.03
2023-01-07T20:04:07.770Z,98230.22
2023-01-07T20:06:38.739Z,98221.16
2023-01-07T20:09:10.548Z,98226.03
2023-01-07T20:11:42.673Z,98229.88
2023-01-07T20:14:09.351Z,98234.75
2023-01-07T20:16:36.954Z,98225.31
2023-01-07T20:19:04.064Z,98223.56
2023-01-07T20:21:30.570Z,98220.31
2023-01-07T20:23:57.081Z,98224.97
2023-01-07T20:26:26.892Z,98222.03
2023-01-07T20:28:54.543Z,98222.38
2023-01-07T20:31:23.374Z,98225.53
2023-01-07T20:33:50.675Z,98222.22
2023-01-07T20:36:19.327Z,98214.34
2023-01-07T20:38:46.679Z,98213.28
2023-01-07T20:41:17.710Z,98206.78
2023-01-07T20:43:45.309Z,98211.06
2023-01-07T20:46:12.399Z,98213.28
2023-01-07T20:48:38.894Z,98211.28
2023-01-07T20:51:09.693Z,98208.13
2023-01-07T20:53:37.132Z,98216.38
2023-01-07T20:56:05.646Z,98213.13
2023-01-07T20:58:35.325Z,98206.16
2023-01-07T21:01:04.666Z,98221.72
2023-01-07T21:03:31.385Z,98213.47
2023-01-07T21:05:58.213Z,98212.91
2023-01-07T21:08:25.700Z,98214.97
2023-01-07T21:10:52.970Z,98204.28
2023-01-07T21:13:20.378Z,98204.78
2023-01-07T21:15:46.975Z,98197.81
2023-01-07T21:18:14.159Z,98198.34
2023-01-07T21:20:41.065Z,98201.13
2023-01-07T21:23:07.797Z,98193.69
2023-01-07T21:25:34.424Z,98190.22
2023-01-07T21:28:02.070Z,98184.28
2023-01-07T21:30:29.231Z,98189.69
2023-01-07T21:32:56.173Z,98184.69
2023-01-07T21:35:22.767Z,98189.69
2023-01-07T21:37:53.208Z,98190.19
2023-01-07T21:40:19.992Z,98188.88
2023-01-07T21:42:46.551Z,98188.06
2023-01-07T21:45:14.372Z,98193.00
2023-01-07T21:47:41.870Z,98183.47
2023-01-07T21:50:09.296Z,98177.53
2023-01-07T21:52:36.411Z,98174.09
2023-01-07T21:55:03.031Z,98154.56
2023-01-07T21:57:29.684Z,98159.16
2023-01-07T21:59:56.345Z,98156.63
2023-01-07T22:02:23.089Z,98145.69
2023-01-07T22:04:50.514Z,98143.81
2023-01-07T22:07:18.789Z,98140.09
2023-01-07T22:09:46.077Z,98147.75
2023-01-07T22:12:13.662Z,98154.50
2023-01-07T22:14:40.432Z,98163.88
2023-01-07T22:17:09.395Z,98169.41
2023-01-07T22:19:35.919Z,98165.72
2023-01-07T22:22:02.428Z,98164.38
2023-01-07T22:24:29.025Z,98167.19
2023-01-07T22:26:55.728Z,98161.84
2023-01-07T22:29:22.307Z,98160.22
2023-01-07T22:31:51.148Z,98159.47
2023-01-07T22:34:17.826Z,98158.69
2023-01-07T22:37:17.262Z,98159.03
2023-01-07T22:39:57.085Z,98142.28
2023-01-07T22:42:55.772Z,98139.63
2023-01-07T22:45:54.135Z,98145.50
2023-01-07T22:48:24.501Z,98142.28
2023-01-07T22:50:57.595Z,98139.34
2023-01-07T22:53:24.545Z,98137.41
2023-01-07T22:55:51.244Z,98148.97
2023-01-07T22:58:18.098Z,98144.09
2023-01-07T23:00:50.785Z,98142.47
2023-01-07T23:03:22.489Z,98131.91
2023-01-07T23:05:49.731Z,98127.03
2023-01-07T23:08:16.965Z,98137.59
2023-01-07T23:10:44.087Z,98129.19
2023-01-07T23:13:11.124Z,98127.91
2023-01-07T23:15:38.936Z,98131.47
2023-01-07T23:18:07.039Z,98128.44
2023-01-07T23:20:41.436Z,98118.56
2023-01-07T23:23:08.988Z,98108.06
2023-01-07T23:25:36.658Z,98105.56
2023-01-07T23:28:04.571Z,98105.91
2023-01-07T23:30:31.210Z,98096.81
2023-01-07T23:32:57.958Z,98095.94
2023-01-07T23:35:24.600Z,98085.41
2023-01-07T23:37:51.226Z,98072.16
2023-01-07T23:40:18.266Z,98071.19
2023-01-07T23:42:49.381Z,98056.28
2023-01-07T23:45:16.719Z,98064.91
2023-01-07T23:47:43.291Z,98067.31
2023-01-07T23:50:10.203Z,98059.47
2023-01-07T23:52:36.696Z,98047.56
2023-01-07T23:55:03.301Z,98042.00
2023-01-07T23:57:29.977Z,98046.75
2023-01-07T23:59:56.558Z,98051.31
